sensor_id;sensor_type;location;lat;lon;timestamp;pressure;altitude;pressure_sealevel;temperature;humidity
6194;BME280;3130;41.564;23.280;2024-03-29T00:00:45;98765.44;;;12.73;nan
6194;BME280;3130;41.564;23.280;2024-03-29T00:03:11;98665.44;;;12.09;nan
6194;BME280;3130;41.564;23.280;2024-03-29T00:05:37;98624.59;;;11.94;nan
6194;BME280;3130;41.564;23.280;2024-03-29T00:08:04;98746.81;;;12.70;nan
6194;BME280;3130;41.564;23.280;2024-03-29T00:10:31;98729.16;;;12.53;nan
6194;BME280;3130;41.564;23.280;2024-03-29T00:12:57;98741.44;;;12.73;nan
6194;BME280;3130;41.564;23.280;2024-03-29T00:15:25;98739.03;;;12.82;nan
6194;BME280;3130;41.564;23.280;2024-03-29T00:17:51;98738.59;;;12.88;nan
6194;BME280;3130;41.564;23.280;2024-03-29T00:20:17;98728.53;;;13.08;nan
6194;BME280;3130;41.564;23.280;2024-03-29T00:22:43;98600.19;;;12.46;nan
6194;BME280;3130;41.564;23.280;2024-03-29T00:25:10;98698.69;;;13.06;nan
6194;BME280;3130;41.564;23.280;2024-03-29T00:27:36;98731.19;;;13.30;nan
6194;BME280;3130;41.564;23.280;2024-03-29T00:30:02;98558.75;;;12.27;nan
6194;BME280;3130;41.564;23.280;2024-03-29T00:32:30;98742.94;;;13.45;nan
6194;BME280;3130;41.564;23.280;2024-03-29T00:34:56;98745.28;;;13.59;nan
6194;BME280;3130;41.564;23.280;2024-03-29T00:37:22;98739.56;;;13.67;nan
6194;BME280;3130;41.564;23.280;2024-03-29T00:39:48;98742.28;;;13.76;nan
6194;BME280;3130;41.564;23.280;2024-03-29T00:42:14;98743.72;;;13.46;nan
6194;BME280;3130;41.564;23.280;2024-03-29T00:44:41;98743.72;;;13.46;nan
6194;BME280;3130;41.564;23.280;2024-03-29T00:47:07;98746.44;;;13.44;nan
6194;BME280;3130;41.564;23.280;2024-03-29T00:49:35;98740.69;;;13.41;nan
6194;BME280;3130;41.564;23.280;2024-03-29T00:52:03;98715.03;;;13.39;nan
6194;BME280;3130;41.564;23.280;2024-03-29T00:54:29;98689.72;;;13.22;nan
6194;BME280;3130;41.564;23.280;2024-03-29T00:56:56;98733.63;;;13.21;nan
6194;BME280;3130;41.564;23.280;2024-03-29T00:59:22;98561.28;;;12.16;nan
6194;BME280;3130;41.564;23.280;2024-03-29T01:01:49;98744.56;;;12.89;nan
6194;BME280;3130;41.564;23.280;2024-03-29T01:04:16;98732.78;;;12.74;nan
6194;BME280;3130;41.564;23.280;2024-03-29T01:06:44;98724.41;;;12.59;nan
6194;BME280;3130;41.564;23.280;2024-03-29T01:09:10;98751.53;;;12.76;nan
6194;BME280;3130;41.564;23.280;2024-03-29T01:11:37;98736.59;;;12.81;nan
6194;BME280;3130;41.564;23.280;2024-03-29T01:14:03;98718.16;;;12.74;nan
6194;BME280;3130;41.564;23.280;2024-03-29T01:16:29;98746.75;;;12.95;nan
6194;BME280;3130;41.564;23.280;2024-03-29T01:18:56;98741.09;;;12.90;nan
6194;BME280;3130;41.564;23.280;2024-03-29T01:21:22;98731.69;;;12.65;nan
6194;BME280;3130;41.564;23.280;2024-03-29T01:23:50;98699.56;;;12.47;nan
6194;BME280;3130;41.564;23.280;2024-03-29T01:26:16;98724.66;;;12.80;nan
6194;BME280;3130;41.564;23.280;2024-03-29T01:28:42;98660.31;;;12.33;nan
6194;BME280;3130;41.564;23.280;2024-03-29T01:31:09;98745.50;;;13.11;nan
6194;BME280;3130;41.564;23.280;2024-03-29T01:33:35;98738.25;;;13.05;nan
6194;BME280;3130;41.564;23.280;2024-03-29T01:36:02;98715.75;;;12.37;nan
6194;BME280;3130;41.564;23.280;2024-03-29T01:38:28;98723.22;;;12.52;nan
6194;BME280;3130;41.564;23.280;2024-03-29T01:40:56;98744.13;;;12.71;nan
6194;BME280;3130;41.564;23.280;2024-03-29T01:43:22;98751.41;;;12.77;nan
6194;BME280;3130;41.564;23.280;2024-03-29T01:45:53;98748.19;;;12.86;nan
6194;BME280;3130;41.564;23.280;2024-03-29T01:48:21;98746.63;;;12.60;nan
6194;BME280;3130;41.564;23.280;2024-03-29T01:50:50;98768.94;;;12.24;nan
6194;BME280;3130;41.564;23.280;2024-03-29T01:53:19;98774.34;;;12.44;nan
6194;BME280;3130;41.564;23.280;2024-03-29T01:55:47;98782.53;;;12.26;nan
6194;BME280;3130;41.564;23.280;2024-03-29T01:58:16;98755.41;;;11.97;nan
6194;BME280;3130;41.564;23.280;2024-03-29T02:00:50;98788.91;;;12.20;nan
6194;BME280;3130;41.564;23.280;2024-03-29T02:06:03;98781.63;;;11.65;nan
6194;BME280;3130;41.564;23.280;2024-03-29T02:08:31;98680.75;;;10.99;nan
6194;BME280;3130;41.564;23.280;2024-03-29T02:10:58;98636.19;;;10.75;nan
6194;BME280;3130;41.564;23.280;2024-03-29T02:13:27;98760.88;;;11.55;nan
6194;BME280;3130;41.564;23.280;2024-03-29T02:15:55;98756.94;;;11.62;nan
6194;BME280;3130;41.564;23.280;2024-03-29T02:18:22;98755.81;;;11.66;nan
6194;BME280;3130;41.564;23.280;2024-03-29T02:20:49;98754.91;;;11.55;nan
6194;BME280;3130;41.564;23.280;2024-03-29T02:23:20;98620.00;;;10.87;nan
6194;BME280;3130;41.564;23.280;2024-03-29T02:25:52;98730.84;;;11.56;nan
6194;BME280;3130;41.564;23.280;2024-03-29T02:28:20;98758.41;;;11.79;nan
6194;BME280;3130;41.564;23.280;2024-03-29T02:30:49;98771.66;;;11.73;nan
6194;BME280;3130;41.564;23.280;2024-03-29T02:33:16;98785.63;;;11.81;nan
6194;BME280;3130;41.564;23.280;2024-03-29T02:35:43;98799.00;;;11.99;nan
6194;BME280;3130;41.564;23.280;2024-03-29T02:38:10;98811.22;;;12.07;nan
6194;BME280;3130;41.564;23.280;2024-03-29T02:40:38;98804.13;;;11.99;nan
6194;BME280;3130;41.564;23.280;2024-03-29T02:43:07;98843.06;;;12.30;nan
6194;BME280;3130;41.564;23.280;2024-03-29T02:45:34;98839.69;;;12.17;nan
6194;BME280;3130;41.564;23.280;2024-03-29T02:48:01;98836.00;;;12.21;nan
6194;BME280;3130;41.564;23.280;2024-03-29T02:50:29;98834.91;;;11.61;nan
6194;BME280;3130;41.564;23.280;2024-03-29T02:52:55;98827.56;;;11.43;nan
6194;BME280;3130;41.564;23.280;2024-03-29T02:55:22;98793.56;;;11.39;nan
6194;BME280;3130;41.564;23.280;2024-03-29T02:57:48;98838.94;;;11.65;nan
6194;BME280;3130;41.564;23.280;2024-03-29T03:00:18;98836.56;;;11.62;nan
6194;BME280;3130;41.564;23.280;2024-03-29T03:02:44;98833.81;;;11.39;nan
6194;BME280;3130;41.564;23.280;2024-03-29T03:05:11;98834.41;;;11.30;nan
6194;BME280;3130;41.564;23.280;2024-03-29T03:07:37;98830.81;;;11.06;nan
6194;BME280;3130;41.564;23.280;2024-03-29T03:10:22;98818.13;;;11.17;nan
6194;BME280;3130;41.564;23.280;2024-03-29T03:13:06;98753.97;;;10.78;nan
6194;BME280;3130;41.564;23.280;2024-03-29T03:15:35;98811.75;;;11.10;nan
6194;BME280;3130;41.564;23.280;2024-03-29T03:18:02;98814.16;;;11.25;nan
6194;BME280;3130;41.564;23.280;2024-03-29T03:20:29;98612.88;;;10.01;nan
6194;BME280;3130;41.564;23.280;2024-03-29T03:22:57;98630.88;;;10.13;nan
6194;BME280;3130;41.564;23.280;2024-03-29T03:25:26;98677.31;;;10.47;nan
6194;BME280;3130;41.564;23.280;2024-03-29T03:27:52;98751.94;;;10.83;nan
6194;BME280;3130;41.564;23.280;2024-03-29T03:30:20;98836.53;;;11.50;nan
6194;BME280;3130;41.564;23.280;2024-03-29T03:32:47;98812.34;;;11.40;nan
6194;BME280;3130;41.564;23.280;2024-03-29T03:35:14;98844.91;;;11.66;nan
6194;BME280;3130;41.564;23.280;2024-03-29T03:37:41;98846.34;;;11.82;nan
6194;BME280;3130;41.564;23.280;2024-03-29T03:40:09;98814.31;;;11.36;nan
6194;BME280;3130;41.564;23.280;2024-03-29T03:42:35;98836.91;;;11.70;nan
6194;BME280;3130;41.564;23.280;2024-03-29T03:45:02;98848.34;;;11.91;nan
6194;BME280;3130;41.564;23.280;2024-03-29T03:47:29;98847.78;;;11.74;nan
6194;BME280;3130;41.564;23.280;2024-03-29T03:49:58;98852.19;;;11.72;nan
6194;BME280;3130;41.564;23.280;2024-03-29T03:52:24;98847.41;;;11.80;nan
6194;BME280;3130;41.564;23.280;2024-03-29T03:54:51;98854.78;;;11.84;nan
6194;BME280;3130;41.564;23.280;2024-03-29T03:57:17;98830.75;;;11.46;nan
6194;BME280;3130;41.564;23.280;2024-03-29T03:59:45;98812.25;;;11.02;nan
6194;BME280;3130;41.564;23.280;2024-03-29T04:02:11;98849.34;;;11.11;nan
6194;BME280;3130;41.564;23.280;2024-03-29T04:04:38;98869.78;;;10.99;nan
6194;BME280;3130;41.564;23.280;2024-03-29T04:07:06;98868.34;;;10.95;nan
6194;BME280;3130;41.564;23.280;2024-03-29T04:09:34;98863.16;;;11.08;nan
6194;BME280;3130;41.564;23.280;2024-03-29T04:12:00;98742.28;;;10.34;nan
6194;BME280;3130;41.564;23.280;2024-03-29T04:14:27;98762.88;;;10.32;nan
6194;BME280;3130;41.564;23.280;2024-03-29T04:16:53;98679.28;;;9.76;nan
6194;BME280;3130;41.564;23.280;2024-03-29T04:19:21;98791.03;;;10.46;nan
6194;BME280;3130;41.564;23.280;2024-03-29T04:21:47;98728.13;;;9.87;nan
6194;BME280;3130;41.564;23.280;2024-03-29T04:24:15;98808.38;;;10.29;nan
6194;BME280;3130;41.564;23.280;2024-03-29T04:26:42;98865.38;;;10.74;nan
6194;BME280;3130;41.564;23.280;2024-03-29T04:29:10;98913.97;;;11.03;nan
6194;BME280;3130;41.564;23.280;2024-03-29T04:31:36;98929.66;;;11.25;nan
6194;BME280;3130;41.564;23.280;2024-03-29T04:34:03;98935.44;;;11.29;nan
6194;BME280;3130;41.564;23.280;2024-03-29T04:36:29;98942.97;;;11.18;nan
6194;BME280;3130;41.564;23.280;2024-03-29T04:38:57;98939.63;;;11.44;nan
6194;BME280;3130;41.564;23.280;2024-03-29T04:41:25;98931.16;;;11.56;nan
6194;BME280;3130;41.564;23.280;2024-03-29T04:43:52;98938.69;;;11.45;nan
6194;BME280;3130;41.564;23.280;2024-03-29T04:46:20;98873.91;;;11.01;nan
6194;BME280;3130;41.564;23.280;2024-03-29T04:48:47;98948.09;;;11.32;nan
6194;BME280;3130;41.564;23.280;2024-03-29T04:51:14;98955.06;;;11.30;nan
6194;BME280;3130;41.564;23.280;2024-03-29T04:53:41;98923.38;;;11.03;nan
6194;BME280;3130;41.564;23.280;2024-03-29T04:56:09;98954.88;;;11.19;nan
6194;BME280;3130;41.564;23.280;2024-03-29T04:58:37;98969.84;;;11.12;nan
6194;BME280;3130;41.564;23.280;2024-03-29T05:01:04;98962.31;;;11.09;nan
6194;BME280;3130;41.564;23.280;2024-03-29T05:03:32;98966.53;;;11.10;nan
6194;BME280;3130;41.564;23.280;2024-03-29T05:06:00;98970.28;;;11.19;nan
6194;BME280;3130;41.564;23.280;2024-03-29T05:08:28;98969.44;;;11.32;nan
6194;BME280;3130;41.564;23.280;2024-03-29T05:10:55;98956.97;;;11.40;nan
6194;BME280;3130;41.564;23.280;2024-03-29T05:13:22;98957.38;;;11.61;nan
6194;BME280;3130;41.564;23.280;2024-03-29T05:15:51;98958.88;;;11.77;nan
6194;BME280;3130;41.564;23.280;2024-03-29T05:18:18;98988.97;;;12.02;nan
6194;BME280;3130;41.564;23.280;2024-03-29T05:20:46;98997.72;;;12.11;nan
6194;BME280;3130;41.564;23.280;2024-03-29T05:23:16;98983.63;;;12.04;nan
6194;BME280;3130;41.564;23.280;2024-03-29T05:25:43;98996.34;;;12.32;nan
6194;BME280;3130;41.564;23.280;2024-03-29T05:28:10;98962.19;;;12.30;nan
6194;BME280;3130;41.564;23.280;2024-03-29T05:30:37;98991.84;;;12.48;nan
6194;BME280;3130;41.564;23.280;2024-03-29T05:33:06;98992.88;;;12.71;nan
6194;BME280;3130;41.564;23.280;2024-03-29T05:35:34;98989.28;;;12.73;nan
6194;BME280;3130;41.564;23.280;2024-03-29T05:38:01;98992.97;;;12.69;nan
6194;BME280;3130;41.564;23.280;2024-03-29T05:40:28;98998.00;;;12.58;nan
6194;BME280;3130;41.564;23.280;2024-03-29T05:42:55;99015.28;;;12.44;nan
6194;BME280;3130;41.564;23.280;2024-03-29T05:45:25;99004.34;;;12.40;nan
6194;BME280;3130;41.564;23.280;2024-03-29T05:47:53;99014.78;;;12.51;nan
6194;BME280;3130;41.564;23.280;2024-03-29T05:50:24;99010.03;;;12.45;nan
6194;BME280;3130;41.564;23.280;2024-03-29T05:52:52;99006.44;;;12.35;nan
6194;BME280;3130;41.564;23.280;2024-03-29T05:55:19;99023.72;;;12.58;nan
6194;BME280;3130;41.564;23.280;2024-03-29T05:57:46;98989.38;;;12.47;nan
6194;BME280;3130;41.564;23.280;2024-03-29T06:00:14;99024.16;;;12.77;nan
6194;BME280;3130;41.564;23.280;2024-03-29T06:02:42;98938.22;;;12.42;nan
6194;BME280;3130;41.564;23.280;2024-03-29T06:05:10;99025.63;;;12.94;nan
6194;BME280;3130;41.564;23.280;2024-03-29T06:07:39;99028.41;;;13.15;nan
6194;BME280;3130;41.564;23.280;2024-03-29T06:10:07;98995.56;;;12.94;nan
6194;BME280;3130;41.564;23.280;2024-03-29T06:12:36;99035.09;;;13.30;nan
6194;BME280;3130;41.564;23.280;2024-03-29T06:15:05;99038.84;;;13.37;nan
6194;BME280;3130;41.564;23.280;2024-03-29T06:17:49;99039.88;;;13.47;nan
6194;BME280;3130;41.564;23.280;2024-03-29T06:20:17;98959.31;;;12.97;nan
6194;BME280;3130;41.564;23.280;2024-03-29T06:22:46;99039.03;;;13.59;nan
6194;BME280;3130;41.564;23.280;2024-03-29T06:25:13;99029.97;;;13.54;nan
6194;BME280;3130;41.564;23.280;2024-03-29T06:27:41;99050.38;;;13.93;nan
6194;BME280;3130;41.564;23.280;2024-03-29T06:30:14;99044.41;;;14.15;nan
6194;BME280;3130;41.564;23.280;2024-03-29T06:32:42;99042.84;;;14.36;nan
6194;BME280;3130;41.564;23.280;2024-03-29T06:35:10;99028.81;;;14.51;nan
6194;BME280;3130;41.564;23.280;2024-03-29T06:37:38;99046.63;;;15.00;nan
6194;BME280;3130;41.564;23.280;2024-03-29T06:40:08;99043.72;;;15.59;nan
6194;BME280;3130;41.564;23.280;2024-03-29T06:42:36;99023.03;;;16.64;nan
6194;BME280;3130;41.564;23.280;2024-03-29T06:45:04;99045.06;;;18.83;nan
6194;BME280;3130;41.564;23.280;2024-03-29T06:47:31;99036.63;;;21.44;nan
6194;BME280;3130;41.564;23.280;2024-03-29T06:49:58;99037.59;;;24.20;nan
6194;BME280;3130;41.564;23.280;2024-03-29T06:52:26;99042.25;;;25.57;nan
6194;BME280;3130;41.564;23.280;2024-03-29T06:54:53;99046.25;;;26.60;nan
6194;BME280;3130;41.564;23.280;2024-03-29T06:57:22;98951.19;;;26.69;nan
6194;BME280;3130;41.564;23.280;2024-03-29T06:59:51;99028.34;;;27.31;nan
6194;BME280;3130;41.564;23.280;2024-03-29T07:02:19;99028.38;;;28.31;nan
6194;BME280;3130;41.564;23.280;2024-03-29T07:04:46;99047.28;;;28.79;nan
6194;BME280;3130;41.564;23.280;2024-03-29T07:07:14;99027.38;;;27.38;nan
6194;BME280;3130;41.564;23.280;2024-03-29T07:09:41;98933.59;;;28.49;nan
6194;BME280;3130;41.564;23.280;2024-03-29T07:12:08;98966.69;;;30.59;nan
6194;BME280;3130;41.564;23.280;2024-03-29T07:14:37;99053.19;;;33.14;nan
6194;BME280;3130;41.564;23.280;2024-03-29T07:17:05;99052.41;;;33.87;nan
6194;BME280;3130;41.564;23.280;2024-03-29T07:19:33;98998.13;;;34.32;nan
6194;BME280;3130;41.564;23.280;2024-03-29T07:22:00;99038.78;;;35.59;nan
6194;BME280;3130;41.564;23.280;2024-03-29T07:24:28;99038.78;;;35.59;nan
6194;BME280;3130;41.564;23.280;2024-03-29T07:26:55;99072.25;;;38.52;nan
6194;BME280;3130;41.564;23.280;2024-03-29T07:29:22;99072.53;;;40.09;nan
6194;BME280;3130;41.564;23.280;2024-03-29T07:31:51;99051.72;;;40.29;nan
6194;BME280;3130;41.564;23.280;2024-03-29T07:34:19;99028.72;;;40.52;nan
6194;BME280;3130;41.564;23.280;2024-03-29T07:36:46;99050.63;;;41.54;nan
6194;BME280;3130;41.564;23.280;2024-03-29T07:39:14;99077.50;;;42.05;nan
6194;BME280;3130;41.564;23.280;2024-03-29T07:41:41;99083.84;;;42.70;nan
6194;BME280;3130;41.564;23.280;2024-03-29T07:44:09;99099.84;;;43.30;nan
6194;BME280;3130;41.564;23.280;2024-03-29T07:46:36;99087.91;;;42.67;nan
6194;BME280;3130;41.564;23.280;2024-03-29T07:49:07;99088.31;;;42.61;nan
6194;BME280;3130;41.564;23.280;2024-03-29T07:51:34;99093.69;;;43.11;nan
6194;BME280;3130;41.564;23.280;2024-03-29T07:54:02;99085.88;;;43.95;nan
6194;BME280;3130;41.564;23.280;2024-03-29T07:56:29;99097.75;;;44.34;nan
6194;BME280;3130;41.564;23.280;2024-03-29T07:58:57;99072.88;;;44.98;nan
6194;BME280;3130;41.564;23.280;2024-03-29T08:01:24;99083.91;;;45.01;nan
6194;BME280;3130;41.564;23.280;2024-03-29T08:03:52;99077.38;;;44.59;nan
6194;BME280;3130;41.564;23.280;2024-03-29T08:06:21;99072.59;;;45.30;nan
6194;BME280;3130;41.564;23.280;2024-03-29T08:08:49;99070.84;;;44.38;nan
6194;BME280;3130;41.564;23.280;2024-03-29T08:11:16;99063.66;;;43.71;nan
6194;BME280;3130;41.564;23.280;2024-03-29T08:13:43;99076.44;;;44.06;nan
6194;BME280;3130;41.564;23.280;2024-03-29T08:16:11;99018.28;;;43.14;nan
6194;BME280;3130;41.564;23.280;2024-03-29T08:18:38;99028.72;;;42.89;nan
6194;BME280;3130;41.564;23.280;2024-03-29T08:21:05;99061.50;;;42.64;nan
6194;BME280;3130;41.564;23.280;2024-03-29T08:23:39;98980.81;;;41.10;nan
6194;BME280;3130;41.564;23.280;2024-03-29T08:26:07;99073.56;;;38.40;nan
6194;BME280;3130;41.564;23.280;2024-03-29T08:28:34;99080.88;;;35.36;nan
6194;BME280;3130;41.564;23.280;2024-03-29T08:31:07;99014.28;;;32.15;nan
6194;BME280;3130;41.564;23.280;2024-03-29T08:33:35;99069.59;;;30.11;nan
6194;BME280;3130;41.564;23.280;2024-03-29T08:36:05;99025.59;;;28.84;nan
6194;BME280;3130;41.564;23.280;2024-03-29T08:38:33;99039.28;;;28.08;nan
6194;BME280;3130;41.564;23.280;2024-03-29T08:41:03;99009.50;;;27.27;nan
6194;BME280;3130;41.564;23.280;2024-03-29T08:43:31;99046.38;;;26.72;nan
6194;BME280;3130;41.564;23.280;2024-03-29T08:45:58;99013.63;;;25.34;nan
6194;BME280;3130;41.564;23.280;2024-03-29T08:48:26;98976.84;;;24.90;nan
6194;BME280;3130;41.564;23.280;2024-03-29T08:50:54;99059.72;;;25.22;nan
6194;BME280;3130;41.564;23.280;2024-03-29T08:53:21;99055.56;;;24.90;nan
6194;BME280;3130;41.564;23.280;2024-03-29T08:55:49;99058.63;;;24.35;nan
6194;BME280;3130;41.564;23.280;2024-03-29T08:58:18;98988.91;;;24.03;nan
6194;BME280;3130;41.564;23.280;2024-03-29T09:00:53;99049.84;;;24.28;nan
6194;BME280;3130;41.564;23.280;2024-03-29T09:03:24;99012.59;;;23.87;nan
6194;BME280;3130;41.564;23.280;2024-03-29T09:05:51;99037.78;;;23.88;nan
6194;BME280;3130;41.564;23.280;2024-03-29T09:08:18;98990.63;;;23.50;nan
6194;BME280;3130;41.564;23.280;2024-03-29T09:10:46;99034.16;;;23.51;nan
6194;BME280;3130;41.564;23.280;2024-03-29T09:13:13;99032.66;;;23.56;nan
6194;BME280;3130;41.564;23.280;2024-03-29T09:15:42;99005.03;;;23.54;nan
6194;BME280;3130;41.564;23.280;2024-03-29T09:18:10;99024.91;;;23.71;nan
6194;BME280;3130;41.564;23.280;2024-03-29T09:20:43;99018.75;;;23.56;nan
6194;BME280;3130;41.564;23.280;2024-03-29T09:23:11;99004.16;;;23.23;nan
6194;BME280;3130;41.564;23.280;2024-03-29T09:25:42;98961.00;;;23.11;nan
6194;BME280;3130;41.564;23.280;2024-03-29T09:28:10;98902.16;;;22.53;nan
6194;BME280;3130;41.564;23.280;2024-03-29T09:30:37;98968.56;;;23.06;nan
6194;BME280;3130;41.564;23.280;2024-03-29T09:33:06;98934.41;;;23.00;nan
6194;BME280;3130;41.564;23.280;2024-03-29T09:35:35;98953.75;;;23.29;nan
6194;BME280;3130;41.564;23.280;2024-03-29T09:38:06;98984.66;;;23.64;nan
6194;BME280;3130;41.564;23.280;2024-03-29T09:40:33;98848.47;;;22.81;nan
6194;BME280;3130;41.564;23.280;2024-03-29T09:43:01;98867.22;;;22.92;nan
6194;BME280;3130;41.564;23.280;2024-03-29T09:45:31;98853.91;;;23.02;nan
6194;BME280;3130;41.564;23.280;2024-03-29T09:48:07;98805.28;;;22.85;nan
6194;BME280;3130;41.564;23.280;2024-03-29T09:50:35;98930.75;;;23.47;nan
6194;BME280;3130;41.564;23.280;2024-03-29T09:53:03;98909.22;;;23.37;nan
6194;BME280;3130;41.564;23.280;2024-03-29T09:55:34;98995.22;;;23.86;nan
6194;BME280;3130;41.564;23.280;2024-03-29T09:58:04;98937.88;;;23.31;nan
6194;BME280;3130;41.564;23.280;2024-03-29T10:00:31;98946.88;;;23.58;nan
6194;BME280;3130;41.564;23.280;2024-03-29T10:02:59;98961.44;;;23.91;nan
6194;BME280;3130;41.564;23.280;2024-03-29T10:05:29;98960.31;;;23.94;nan
6194;BME280;3130;41.564;23.280;2024-03-29T10:07:58;98930.19;;;23.90;nan
6194;BME280;3130;41.564;23.280;2024-03-29T10:10:34;98784.25;;;23.09;nan
6194;BME280;3130;41.564;23.280;2024-03-29T10:13:01;98788.06;;;23.29;nan
6194;BME280;3130;41.564;23.280;2024-03-29T10:15:30;98956.00;;;24.23;nan
6194;BME280;3130;41.564;23.280;2024-03-29T10:18:03;98949.38;;;24.27;nan
6194;BME280;3130;41.564;23.280;2024-03-29T10:20:32;98942.91;;;24.38;nan
6194;BME280;3130;41.564;23.280;2024-03-29T10:23:02;98758.03;;;23.39;nan
6194;BME280;3130;41.564;23.280;2024-03-29T10:25:32;98777.22;;;23.54;nan
6194;BME280;3130;41.564;23.280;2024-03-29T10:28:00;98760.50;;;23.77;nan
6194;BME280;3130;41.564;23.280;2024-03-29T10:30:28;98805.78;;;23.86;nan
6194;BME280;3130;41.564;23.280;2024-03-29T10:32:56;98827.03;;;24.42;nan
6194;BME280;3130;41.564;23.280;2024-03-29T10:35:25;98895.31;;;24.92;nan
6194;BME280;3130;41.564;23.280;2024-03-29T10:37:54;98804.56;;;24.40;nan
6194;BME280;3130;41.564;23.280;2024-03-29T10:40:22;98776.00;;;24.30;nan
6194;BME280;3130;41.564;23.280;2024-03-29T10:42:52;98907.81;;;25.19;nan
6194;BME280;3130;41.564;23.280;2024-03-29T10:45:20;98866.63;;;24.90;nan
6194;BME280;3130;41.564;23.280;2024-03-29T10:47:49;98877.19;;;25.11;nan
6194;BME280;3130;41.564;23.280;2024-03-29T10:50:19;98894.22;;;25.30;nan
6194;BME280;3130;41.564;23.280;2024-03-29T10:52:48;98883.66;;;25.44;nan
6194;BME280;3130;41.564;23.280;2024-03-29T10:55:17;98888.22;;;25.36;nan
6194;BME280;3130;41.564;23.280;2024-03-29T10:57:46;98890.53;;;25.45;nan
6194;BME280;3130;41.564;23.280;2024-03-29T11:00:17;98869.19;;;25.34;nan
6194;BME280;3130;41.564;23.280;2024-03-29T11:02:48;98797.88;;;24.95;nan
6194;BME280;3130;41.564;23.280;2024-03-29T11:05:17;98815.56;;;25.22;nan
6194;BME280;3130;41.564;23.280;2024-03-29T11:07:45;98884.56;;;25.72;nan
6194;BME280;3130;41.564;23.280;2024-03-29T11:10:17;98811.09;;;25.22;nan
6194;BME280;3130;41.564;23.280;2024-03-29T11:12:57;98859.53;;;25.76;nan
6194;BME280;3130;41.564;23.280;2024-03-29T11:15:29;98881.53;;;25.75;nan
6194;BME280;3130;41.564;23.280;2024-03-29T11:17:57;98859.16;;;25.58;nan
6194;BME280;3130;41.564;23.280;2024-03-29T11:20:26;98851.22;;;25.72;nan
6194;BME280;3130;41.564;23.280;2024-03-29T11:23:04;98857.13;;;25.95;nan
6194;BME280;3130;41.564;23.280;2024-03-29T11:25:41;98846.78;;;25.94;nan
6194;BME280;3130;41.564;23.280;2024-03-29T11:28:10;98840.50;;;25.95;nan
6194;BME280;3130;41.564;23.280;2024-03-29T11:30:46;98819.31;;;25.96;nan
6194;BME280;3130;41.564;23.280;2024-03-29T11:33:32;98745.44;;;25.64;nan
6194;BME280;3130;41.564;23.280;2024-03-29T11:36:12;98836.38;;;26.07;nan
6194;BME280;3130;41.564;23.280;2024-03-29T11:38:40;98814.06;;;25.96;nan
6194;BME280;3130;41.564;23.280;2024-03-29T11:41:11;98820.81;;;26.12;nan
6194;BME280;3130;41.564;23.280;2024-03-29T11:43:38;98826.75;;;26.20;nan
6194;BME280;3130;41.564;23.280;2024-03-29T11:46:08;98812.53;;;26.08;nan
6194;BME280;3130;41.564;23.280;2024-03-29T11:48:36;98823.91;;;26.15;nan
6194;BME280;3130;41.564;23.280;2024-03-29T11:51:06;98695.56;;;25.43;nan
6194;BME280;3130;41.564;23.280;2024-03-29T11:53:34;98818.53;;;26.30;nan
6194;BME280;3130;41.564;23.280;2024-03-29T11:56:03;98818.09;;;26.54;nan
6194;BME280;3130;41.564;23.280;2024-03-29T11:58:32;98810.25;;;26.60;nan
6194;BME280;3130;41.564;23.280;2024-03-29T12:01:01;98815.31;;;26.62;nan
6194;BME280;3130;41.564;23.280;2024-03-29T12:03:30;98807.63;;;26.33;nan
6194;BME280;3130;41.564;23.280;2024-03-29T12:05:58;98812.31;;;26.10;nan
6194;BME280;3130;41.564;23.280;2024-03-29T12:08:28;98803.50;;;26.17;nan
6194;BME280;3130;41.564;23.280;2024-03-29T12:10:57;98796.31;;;26.32;nan
6194;BME280;3130;41.564;23.280;2024-03-29T12:13:25;98715.47;;;26.13;nan
6194;BME280;3130;41.564;23.280;2024-03-29T12:15:54;98805.91;;;26.86;nan
6194;BME280;3130;41.564;23.280;2024-03-29T12:18:24;98704.88;;;26.34;nan
6194;BME280;3130;41.564;23.280;2024-03-29T12:20:52;98723.44;;;26.66;nan
6194;BME280;3130;41.564;23.280;2024-03-29T12:23:21;98796.75;;;27.23;nan
6194;BME280;3130;41.564;23.280;2024-03-29T12:25:50;98800.78;;;27.25;nan
6194;BME280;3130;41.564;23.280;2024-03-29T12:28:21;98695.06;;;26.56;nan
6194;BME280;3130;41.564;23.280;2024-03-29T12:30:59;98794.66;;;27.05;nan
6194;BME280;3130;41.564;23.280;2024-03-29T12:33:27;98730.81;;;26.97;nan
6194;BME280;3130;41.564;23.280;2024-03-29T12:35:57;98760.47;;;27.25;nan
6194;BME280;3130;41.564;23.280;2024-03-29T12:38:25;98799.63;;;27.41;nan
6194;BME280;3130;41.564;23.280;2024-03-29T12:40:53;98789.25;;;27.46;nan
6194;BME280;3130;41.564;23.280;2024-03-29T12:43:22;98787.50;;;27.72;nan
6194;BME280;3130;41.564;23.280;2024-03-29T12:45:51;98792.56;;;27.86;nan
6194;BME280;3130;41.564;23.280;2024-03-29T12:48:21;98686.50;;;27.46;nan
6194;BME280;3130;41.564;23.280;2024-03-29T12:50:50;98759.69;;;27.95;nan
6194;BME280;3130;41.564;23.280;2024-03-29T12:53:18;98782.56;;;28.21;nan
6194;BME280;3130;41.564;23.280;2024-03-29T12:55:46;98778.34;;;28.20;nan
6194;BME280;3130;41.564;23.280;2024-03-29T12:58:15;98724.41;;;27.32;nan
6194;BME280;3130;41.564;23.280;2024-03-29T13:00:44;98723.00;;;27.49;nan
6194;BME280;3130;41.564;23.280;2024-03-29T13:03:11;98749.38;;;27.74;nan
6194;BME280;3130;41.564;23.280;2024-03-29T13:05:41;98768.63;;;27.75;nan
6194;BME280;3130;41.564;23.280;2024-03-29T13:08:10;98715.47;;;27.59;nan
6194;BME280;3130;41.564;23.280;2024-03-29T13:10:40;98614.16;;;26.90;nan
6194;BME280;3130;41.564;23.280;2024-03-29T13:13:08;98759.91;;;27.94;nan
6194;BME280;3130;41.564;23.280;2024-03-29T13:15:37;98756.22;;;28.08;nan
6194;BME280;3130;41.564;23.280;2024-03-29T13:18:06;98709.03;;;27.67;nan
6194;BME280;3130;41.564;23.280;2024-03-29T13:20:36;98760.28;;;27.97;nan
6194;BME280;3130;41.564;23.280;2024-03-29T13:23:08;98683.03;;;27.64;nan
6194;BME280;3130;41.564;23.280;2024-03-29T13:25:36;98680.63;;;27.63;nan
6194;BME280;3130;41.564;23.280;2024-03-29T13:28:04;98760.69;;;28.27;nan
6194;BME280;3130;41.564;23.280;2024-03-29T13:30:33;98680.22;;;27.79;nan
6194;BME280;3130;41.564;23.280;2024-03-29T13:33:05;98656.13;;;27.50;nan
6194;BME280;3130;41.564;23.280;2024-03-29T13:35:35;98701.13;;;27.74;nan
6194;BME280;3130;41.564;23.280;2024-03-29T13:38:03;98745.25;;;28.30;nan
6194;BME280;3130;41.564;23.280;2024-03-29T13:40:32;98664.78;;;27.89;nan